Time;durP1;ratioP1;P1;durP2;ratioP2;P2;SDS_P1;SDS_P2;PMS_P1;PMS_P2;Temp;Humidity;BMP_temperature;BMP_pressure;BME280_temperature;BME280_humidity;BME280_pressure;Samples;Min_cycle;Max_cycle;Signal;HPM_P1;HPM_P2
2023/10/01 00:00:10;;;;;;;15.73;13.18;;;19.20;99.90;;;;;;5042730;28;20025;-72
2023/10/01 00:02:37;;;;;;;14.65;12.80;;;19.10;99.90;;;;;;5045186;28;20087;-72
2023/10/01 00:05:06;;;;;;;19.45;12.93;;;19.10;99.90;;;;;;5035742;28;20088;-72
2023/10/01 00:07:37;;;;;;;17.52;12.95;;;19.10;99.90;;;;;;5043808;28;20296;-73
2023/10/01 00:10:12;;;;;;;15.10;12.52;;;19.10;99.90;;;;;;5045108;28;20017;-73
2023/10/01 00:12:39;;;;;;;15.77;13.57;;;19.20;99.90;;;;;;5046503;28;20088;-72
2023/10/01 00:15:06;;;;;;;18.70;12.80;;;19.10;99.90;;;;;;5045869;28;20021;-72
2023/10/01 00:17:32;;;;;;;20.20;13.25;;;19.10;99.90;;;;;;5040718;28;20054;-72
2023/10/01 00:20:00;;;;;;;16.30;12.98;;;19.10;99.90;;;;;;5046044;28;20033;-73
2023/10/01 00:22:26;;;;;;;19.13;13.20;;;19.10;99.90;;;;;;5055144;28;20009;-72
2023/10/01 00:24:52;;;;;;;16.35;13.15;;;19.10;99.90;;;;;;5042669;28;20033;-73
2023/10/01 00:27:18;;;;;;;17.30;12.75;;;19.10;99.90;;;;;;5040737;28;20499;-72
2023/10/01 00:29:44;;;;;;;20.02;13.73;;;19.10;99.90;;;;;;5043854;28;20029;-72
2023/10/01 00:32:10;;;;;;;18.42;13.07;;;19.10;99.90;;;;;;5044678;28;20020;-73
2023/10/01 00:34:36;;;;;;;22.92;14.00;;;19.10;99.90;;;;;;5040075;28;20056;-72
2023/10/01 00:37:01;;;;;;;17.85;13.73;;;19.00;99.90;;;;;;5035582;28;20033;-72
2023/10/01 00:39:27;;;;;;;16.35;13.75;;;19.10;99.90;;;;;;5042749;28;20036;-72
2023/10/01 00:41:52;;;;;;;18.15;13.40;;;19.00;99.90;;;;;;5041043;28;20025;-73
2023/10/01 00:44:18;;;;;;;17.27;14.02;;;19.00;99.90;;;;;;5041860;28;20036;-73
2023/10/01 00:46:44;;;;;;;17.42;14.02;;;19.00;99.90;;;;;;5057273;28;20025;-72
2023/10/01 00:49:12;;;;;;;20.38;14.15;;;19.00;99.90;;;;;;5044318;28;20031;-73
2023/10/01 00:51:37;;;;;;;20.75;14.85;;;19.00;99.90;;;;;;5050123;28;20028;-73
2023/10/01 00:54:04;;;;;;;21.15;14.50;;;19.00;99.90;;;;;;5046309;28;20045;-72
2023/10/01 00:56:31;;;;;;;17.95;13.77;;;19.00;99.90;;;;;;5046272;28;20048;-72
2023/10/01 00:58:57;;;;;;;20.30;13.88;;;19.00;99.90;;;;;;5048755;28;20453;-73
2023/10/01 01:01:26;;;;;;;19.77;13.80;;;19.00;99.90;;;;;;5034774;28;20107;-72
2023/10/01 01:03:52;;;;;;;19.80;14.18;;;19.00;99.90;;;;;;5052985;28;20027;-73
2023/10/01 01:06:23;;;;;;;23.23;14.15;;;19.00;99.90;;;;;;5037462;28;20029;-73
2023/10/01 01:08:54;;;;;;;20.03;14.97;;;19.00;99.90;;;;;;5048411;28;20022;-73
2023/10/01 01:11:21;;;;;;;17.92;14.23;;;18.90;99.90;;;;;;5047587;28;20017;-73
2023/10/01 01:13:49;;;;;;;19.23;14.57;;;19.00;99.90;;;;;;5045762;28;20026;-73
2023/10/01 01:16:19;;;;;;;18.05;13.43;;;19.00;99.90;;;;;;5045156;28;20017;-72
2023/10/01 01:18:51;;;;;;;23.52;14.95;;;19.00;99.90;;;;;;5049941;28;20415;-72
2023/10/01 01:21:17;;;;;;;;;;;19.00;99.90;;;;;;5046883;28;20029;-73
2023/10/01 01:23:46;;;;;;;17.45;14.00;;;19.00;99.90;;;;;;5048672;28;19924;-75
2023/10/01 01:26:20;;;;;;;15.85;13.55;;;18.90;99.90;;;;;;5047184;28;20403;-75
2023/10/01 01:28:49;;;;;;;18.98;14.05;;;18.90;99.90;;;;;;5046384;28;20083;-75
2023/10/01 01:31:18;;;;;;;19.52;14.52;;;18.90;99.90;;;;;;5044857;28;20041;-75
2023/10/01 01:33:44;;;;;;;18.02;14.85;;;19.00;99.90;;;;;;5043108;28;20112;-75
2023/10/01 01:36:17;;;;;;;17.58;14.50;;;18.90;99.90;;;;;;5052732;28;20516;-75
2023/10/01 01:39:27;;;;;;;20.63;14.68;;;19.00;99.90;;;;;;5033134;28;20029;-75
2023/10/01 01:41:54;;;;;;;18.25;14.77;;;18.90;99.90;;;;;;5037642;28;20049;-75
2023/10/01 01:44:20;;;;;;;20.48;14.68;;;18.90;99.90;;;;;;5047993;28;20052;-75
2023/10/01 01:46:49;;;;;;;18.13;14.98;;;18.90;99.90;;;;;;5037211;28;20415;-75
2023/10/01 01:49:24;;;;;;;17.75;14.73;;;18.90;99.90;;;;;;5028840;28;20484;-75
2023/10/01 01:52:03;;;;;;;16.55;14.60;;;18.90;99.90;;;;;;5061714;28;20375;-75
2023/10/01 01:54:43;;;;;;;18.15;14.13;;;18.90;99.90;;;;;;5044824;28;20029;-75
2023/10/01 01:57:38;;;;;;;20.05;14.52;;;18.90;99.90;;;;;;5033607;28;20071;-75
2023/10/01 02:00:14;;;;;;;21.88;13.75;;;18.90;99.90;;;;;;5024328;28;20117;-75
2023/10/01 02:02:59;;;;;;;19.13;13.98;;;18.80;99.90;;;;;;5046505;28;20391;-75
2023/10/01 02:05:31;;;;;;;18.08;14.50;;;18.90;99.90;;;;;;5046670;28;20028;-75
2023/10/01 02:08:06;;;;;;;19.70;14.02;;;18.80;99.90;;;;;;5049106;28;20365;-75
2023/10/01 02:10:44;;;;;;;19.67;13.50;;;18.80;99.90;;;;;;5043953;28;20016;-75
2023/10/01 02:13:13;;;;;;;18.80;14.35;;;18.80;99.90;;;;;;5029768;28;20086;-75
2023/10/01 02:15:39;;;;;;;18.55;14.00;;;18.80;99.90;;;;;;5046509;28;20037;-75
2023/10/01 02:18:09;;;;;;;17.40;14.05;;;18.80;99.90;;;;;;5037941;28;20025;-75
2023/10/01 02:20:44;;;;;;;16.85;14.55;;;18.80;99.90;;;;;;5033384;28;20492;-75
2023/10/01 02:23:13;;;;;;;21.10;13.98;;;18.80;99.90;;;;;;5019829;28;20170;-75
2023/10/01 02:25:49;;;;;;;24.73;14.93;;;18.80;99.90;;;;;;5036119;28;20082;-75
2023/10/01 02:28:36;;;;;;;16.55;14.48;;;18.80;99.90;;;;;;5033307;28;20500;-75
2023/10/01 02:31:13;;;;;;;19.00;13.90;;;18.80;99.90;;;;;;5044255;28;20009;-75
2023/10/01 02:33:55;;;;;;;18.33;13.95;;;18.70;99.90;;;;;;5047237;28;20029;-75
2023/10/01 02:36:22;;;;;;;21.42;14.85;;;18.70;99.90;;;;;;5029724;28;20476;-75
2023/10/01 02:38:53;;;;;;;23.10;14.45;;;18.70;99.90;;;;;;5027404;28;20033;-75
2023/10/01 02:41:28;;;;;;;16.73;13.18;;;18.70;99.90;;;;;;5058424;28;20029;-75
2023/10/01 02:44:05;;;;;;;19.95;14.35;;;18.80;99.90;;;;;;5027150;28;20493;-75
2023/10/01 02:46:30;;;;;;;18.58;15.00;;;18.80;99.90;;;;;;5047596;28;20039;-75
2023/10/01 02:48:59;;;;;;;20.00;13.75;;;18.70;99.90;;;;;;5048842;28;20029;-75
2023/10/01 02:51:37;;;;;;;18.15;13.88;;;18.80;99.90;;;;;;5049435;28;20497;-75
2023/10/01 02:54:09;;;;;;;17.58;13.85;;;18.70;99.90;;;;;;5045129;28;20150;-75
2023/10/01 02:56:52;;;;;;;17.38;13.63;;;18.70;99.90;;;;;;5046067;28;20052;-75
2023/10/01 02:59:19;;;;;;;22.73;13.38;;;18.70;99.90;;;;;;5041975;28;20022;-75
2023/10/01 03:01:48;;;;;;;17.40;13.93;;;18.70;99.90;;;;;;5041618;28;20040;-75
2023/10/01 03:04:18;;;;;;;16.42;14.23;;;18.70;99.90;;;;;;5029407;28;20514;-75
2023/10/01 03:06:55;;;;;;;22.48;14.77;;;18.70;99.90;;;;;;5057099;28;20036;-75
2023/10/01 03:09:33;;;;;;;17.02;13.90;;;18.70;99.90;;;;;;5043612;28;20017;-75
2023/10/01 03:15:28;;;;;;;14.73;13.23;;;18.70;99.90;;;;;;5042755;28;20032;-75
2023/10/01 03:17:38;;;;;;;18.52;13.68;;;18.70;99.90;;;;;;5039149;28;20288;-75
2023/10/01 03:23:01;;;;;;;15.63;14.02;;;18.70;99.90;;;;;;5024304;28;20042;-75
2023/10/01 03:25:30;;;;;;;25.50;13.82;;;18.60;99.90;;;;;;5026039;28;20025;-75
2023/10/01 03:28:07;;;;;;;15.65;13.43;;;18.60;99.90;;;;;;5046141;28;20029;-75
2023/10/01 03:30:33;;;;;;;19.42;13.63;;;18.60;99.90;;;;;;5030312;28;20119;-75
2023/10/01 03:33:07;;;;;;;16.10;13.52;;;18.60;99.90;;;;;;5050029;28;20017;-75
2023/10/01 03:35:34;;;;;;;18.35;13.60;;;18.60;99.90;;;;;;5044752;28;20028;-75
2023/10/01 03:38:10;;;;;;;16.88;13.65;;;18.60;99.90;;;;;;5032147;28;20029;-75
2023/10/01 03:40:58;;;;;;;16.60;13.15;;;18.60;99.90;;;;;;5042859;28;20136;-75
2023/10/01 03:43:31;;;;;;;17.92;13.60;;;18.50;99.90;;;;;;5042270;28;20546;-75
2023/10/01 03:46:07;;;;;;;14.48;12.68;;;18.50;99.90;;;;;;5047184;28;20024;-75
2023/10/01 03:51:28;;;;;;;17.15;12.65;;;18.50;99.90;;;;;;5039111;28;20036;-75
2023/10/01 03:54:06;;;;;;;16.40;13.75;;;18.50;99.90;;;;;;5041973;28;20033;-75
2023/10/01 03:56:33;;;;;;;16.98;13.40;;;18.50;99.90;;;;;;5045861;28;20365;-75
2023/10/01 03:59:00;;;;;;;15.88;13.75;;;18.50;99.90;;;;;;5043846;28;20102;-75
2023/10/01 04:01:31;;;;;;;14.38;12.82;;;18.50;99.90;;;;;;5045667;28;20488;-75
2023/10/01 04:04:00;;;;;;;18.08;13.23;;;18.50;99.90;;;;;;5043225;28;20025;-75
2023/10/01 04:06:30;;;;;;;16.33;13.48;;;18.50;99.90;;;;;;5030085;28;20032;-75
2023/10/01 04:08:59;;;;;;;15.98;13.23;;;18.50;99.90;;;;;;5034483;28;20025;-75
2023/10/01 04:11:49;;;;;;;18.15;13.15;;;18.50;99.90;;;;;;5052354;28;20025;-75
2023/10/01 04:14:17;;;;;;;15.85;13.27;;;18.50;99.90;;;;;;5042621;28;20108;-75
2023/10/01 04:16:46;;;;;;;;;;;18.40;99.90;;;;;;5045114;28;20017;-75
2023/10/01 04:19:16;;;;;;;16.15;12.82;;;18.40;99.90;;;;;;5046198;28;19944;-75
2023/10/01 04:21:43;;;;;;;20.15;13.48;;;18.40;99.90;;;;;;5043301;28;20022;-75
2023/10/01 04:24:09;;;;;;;15.48;12.93;;;18.40;99.90;;;;;;5044030;28;20090;-75
2023/10/01 04:26:35;;;;;;;15.13;13.13;;;18.40;99.90;;;;;;5043048;28;20448;-75
2023/10/01 04:29:01;;;;;;;15.20;13.10;;;18.40;99.90;;;;;;5048865;28;20369;-75
2023/10/01 04:31:42;;;;;;;15.98;12.93;;;18.40;99.90;;;;;;5043587;28;20018;-75
2023/10/01 04:34:11;;;;;;;17.70;13.32;;;18.40;99.90;;;;;;5046278;28;20222;-75
2023/10/01 04:36:50;;;;;;;21.02;12.80;;;18.40;99.90;;;;;;5059589;28;20480;-75
2023/10/01 04:39:17;;;;;;;22.83;12.73;;;18.40;99.90;;;;;;5045937;28;20103;-75
2023/10/01 04:41:45;;;;;;;17.95;13.43;;;18.40;99.90;;;;;;5051455;28;20025;-74
2023/10/01 04:44:17;;;;;;;17.83;13.30;;;18.40;99.90;;;;;;5052238;28;20021;-75
2023/10/01 04:46:45;;;;;;;17.77;12.93;;;18.40;99.90;;;;;;5041937;28;20029;-75
2023/10/01 04:49:27;;;;;;;15.65;13.38;;;18.40;99.90;;;;;;5036878;28;20029;-75
2023/10/01 04:52:01;;;;;;;15.02;12.93;;;18.40;99.90;;;;;;5045479;28;20071;-75
2023/10/01 04:54:28;;;;;;;14.30;12.85;;;18.40;99.90;;;;;;5046115;28;20047;-75
2023/10/01 04:56:57;;;;;;;18.58;13.60;;;18.40;99.90;;;;;;5028330;28;20026;-75
2023/10/01 04:59:24;;;;;;;17.52;14.02;;;18.40;99.90;;;;;;5042639;28;20366;-75
2023/10/01 05:01:56;;;;;;;18.63;12.57;;;18.40;99.90;;;;;;5046106;28;20112;-75
2023/10/01 05:04:23;;;;;;;14.15;12.15;;;18.40;99.90;;;;;;5042507;28;20112;-75
2023/10/01 05:07:00;;;;;;;16.55;13.18;;;18.30;99.90;;;;;;5051213;28;20064;-75
2023/10/01 05:09:33;;;;;;;18.27;13.23;;;18.30;99.90;;;;;;5037000;28;20033;-75
2023/10/01 05:12:01;;;;;;;16.05;13.60;;;18.30;99.90;;;;;;5038834;28;20028;-75
2023/10/01 05:14:28;;;;;;;15.10;12.98;;;18.30;99.90;;;;;;5043803;28;20023;-74
2023/10/01 05:16:54;;;;;;;21.55;13.43;;;18.30;99.90;;;;;;5056664;28;20013;-75
2023/10/01 05:19:23;;;;;;;15.13;11.93;;;18.30;99.90;;;;;;5046848;28;20028;-75
2023/10/01 05:21:50;;;;;;;21.70;13.20;;;18.20;99.90;;;;;;5041910;28;20439;-75
2023/10/01 05:24:35;;;;;;;18.30;12.80;;;18.30;99.90;;;;;;5044414;28;20211;-75
2023/10/01 05:27:09;;;;;;;20.52;12.13;;;18.30;99.90;;;;;;5057953;28;20036;-75
2023/10/01 05:29:42;;;;;;;17.63;12.82;;;18.20;99.90;;;;;;5043231;28;20035;-74
2023/10/01 05:32:10;;;;;;;18.15;12.57;;;18.30;99.90;;;;;;5047892;28;20261;-75
2023/10/01 05:34:38;;;;;;;19.58;13.82;;;18.30;99.90;;;;;;5044559;28;20388;-75
2023/10/01 05:37:12;;;;;;;19.88;12.90;;;18.30;99.90;;;;;;5057497;28;20020;-75
2023/10/01 05:39:57;;;;;;;20.73;13.55;;;18.30;99.90;;;;;;5042496;28;20029;-75
2023/10/01 05:42:28;;;;;;;18.02;12.27;;;18.30;99.90;;;;;;5056596;28;20112;-75
2023/10/01 05:44:59;;;;;;;17.33;12.48;;;18.30;99.90;;;;;;5044306;28;20096;-75
2023/10/01 05:47:41;;;;;;;14.67;12.23;;;18.30;99.90;;;;;;5040498;28;20094;-75
2023/10/01 05:50:08;;;;;;;18.92;12.95;;;18.30;99.90;;;;;;5045853;28;20274;-75
2023/10/01 05:52:40;;;;;;;15.25;12.43;;;18.30;99.90;;;;;;5030070;28;20128;-75
2023/10/01 05:55:08;;;;;;;16.75;11.48;;;18.30;99.90;;;;;;5047904;28;20017;-75
2023/10/01 05:57:34;;;;;;;12.10;10.88;;;18.30;99.90;;;;;;5045895;28;20384;-75
2023/10/01 06:00:00;;;;;;;18.92;11.73;;;18.30;99.90;;;;;;5047655;28;20028;-75
2023/10/01 06:02:42;;;;;;;18.25;12.07;;;18.30;99.90;;;;;;5053170;28;20021;-75
2023/10/01 06:07:56;;;;;;;17.10;11.50;;;18.40;99.90;;;;;;5052626;28;20044;-75
2023/10/01 06:10:35;;;;;;;17.08;11.93;;;18.40;99.90;;;;;;5049563;28;20474;-75
2023/10/01 06:13:06;;;;;;;16.95;11.32;;;18.40;99.90;;;;;;5046249;28;20029;-74
2023/10/01 06:15:33;;;;;;;14.90;11.88;;;18.40;99.90;;;;;;5026631;28;20057;-75
2023/10/01 06:18:05;;;;;;;14.45;11.43;;;18.50;99.90;;;;;;5020451;28;20028;-75
2023/10/01 06:20:31;;;;;;;12.37;10.80;;;18.50;99.90;;;;;;5048342;28;20060;-75
2023/10/01 06:22:59;;;;;;;19.63;11.35;;;18.60;99.90;;;;;;5052026;28;20029;-75
2023/10/01 06:25:40;;;;;;;18.63;11.27;;;18.60;99.90;;;;;;5033511;28;20388;-75
2023/10/01 06:28:09;;;;;;;14.30;10.57;;;18.60;99.90;;;;;;5044956;28;20021;-75
2023/10/01 06:30:35;;;;;;;15.05;10.50;;;18.60;99.90;;;;;;5051362;28;20093;-75
2023/10/01 06:33:01;;;;;;;14.65;10.27;;;18.70;99.90;;;;;;5052208;28;20488;-75
2023/10/01 06:35:27;;;;;;;14.73;11.23;;;18.70;99.90;;;;;;5047738;28;20029;-75
2023/10/01 06:37:53;;;;;;;13.57;10.82;;;18.70;99.90;;;;;;5044845;28;20075;-75
2023/10/01 06:40:31;;;;;;;12.77;10.85;;;18.80;99.90;;;;;;5037863;28;20204;-75
2023/10/01 06:43:00;;;;;;;17.60;10.95;;;18.80;99.90;;;;;;5049070;28;20025;-75
2023/10/01 06:45:41;;;;;;;12.75;10.20;;;18.90;99.90;;;;;;5047792;28;20447;-75
2023/10/01 06:48:10;;;;;;;13.18;11.18;;;18.90;99.90;;;;;;5042910;28;20120;-75
2023/10/01 06:50:46;;;;;;;14.10;10.75;;;19.00;99.90;;;;;;5027992;28;20481;-75
2023/10/01 06:53:13;;;;;;;13.73;10.85;;;19.00;99.90;;;;;;5043583;28;20037;-75
2023/10/01 06:55:39;;;;;;;14.82;10.15;;;19.10;99.90;;;;;;5049723;28;20029;-75
2023/10/01 06:58:07;;;;;;;15.43;10.55;;;19.20;99.90;;;;;;5048168;28;20128;-75
2023/10/01 07:00:36;;;;;;;11.60;10.45;;;19.20;99.90;;;;;;5047056;28;20032;-75
2023/10/01 07:03:21;;;;;;;16.80;9.95;;;19.30;99.90;;;;;;5034104;28;20032;-75
2023/10/01 07:05:51;;;;;;;13.98;11.38;;;19.30;99.90;;;;;;5040654;28;20026;-75
2023/10/01 07:08:20;;;;;;;18.73;11.25;;;19.30;99.90;;;;;;5042174;28;20021;-75
2023/10/01 07:10:50;;;;;;;16.83;10.02;;;19.40;99.90;;;;;;5047372;28;20021;-75
2023/10/01 07:13:16;;;;;;;11.93;9.80;;;19.40;99.90;;;;;;5042931;28;20071;-74
2023/10/01 07:15:48;;;;;;;12.23;10.05;;;19.50;99.90;;;;;;5043118;28;20025;-74
2023/10/01 07:18:15;;;;;;;10.95;9.55;;;19.50;99.90;;;;;;5043629;28;20053;-74
2023/10/01 07:20:44;;;;;;;13.10;10.23;;;19.60;99.90;;;;;;5050794;28;20029;-74
2023/10/01 07:23:13;;;;;;;10.98;9.88;;;19.60;99.90;;;;;;5049209;28;20060;-74
2023/10/01 07:25:39;;;;;;;10.60;9.48;;;19.70;99.90;;;;;;5044329;28;20078;-74
2023/10/01 07:28:12;;;;;;;10.32;9.27;;;19.70;99.90;;;;;;5044372;28;20067;-74
2023/10/01 07:30:46;;;;;;;11.43;9.40;;;19.80;99.90;;;;;;5044517;28;20013;-74
2023/10/01 07:33:17;;;;;;;13.10;9.00;;;19.80;99.90;;;;;;5040701;28;20048;-72
2023/10/01 07:35:44;;;;;;;13.90;9.70;;;19.90;99.90;;;;;;5042873;28;20112;-72
2023/10/01 07:38:14;;;;;;;12.38;9.65;;;19.90;99.90;;;;;;5051286;28;20068;-72
2023/10/01 07:40:57;;;;;;;9.80;8.88;;;20.00;99.90;;;;;;5041788;28;20029;-72
2023/10/01 07:43:27;;;;;;;14.68;9.07;;;20.00;99.90;;;;;;5043301;28;20025;-72
2023/10/01 07:45:57;;;;;;;12.75;8.38;;;20.10;99.90;;;;;;5045258;28;20029;-72
2023/10/01 07:48:29;;;;;;;11.00;9.32;;;20.10;99.90;;;;;;5044330;28;20495;-72
2023/10/01 07:50:56;;;;;;;13.32;8.38;;;20.10;1.00;;;;;;5043775;28;20030;-72
2023/10/01 07:53:32;;;;;;;10.95;8.40;;;20.10;99.90;;;;;;5027052;28;20045;-72
2023/10/01 07:56:15;;;;;;;10.70;9.02;;;20.20;99.90;;;;;;5043373;28;20484;-72
2023/10/01 07:58:56;;;;;;;13.60;9.00;;;20.20;1.00;;;;;;5041048;28;20025;-72
2023/10/01 08:01:39;;;;;;;10.15;8.70;;;20.20;1.00;;;;;;5030503;28;20044;-72
2023/10/01 08:04:38;;;;;;;14.13;9.15;;;20.30;1.00;;;;;;5039633;28;20026;-72
2023/10/01 08:06:57;;;;;;;10.38;8.60;;;20.30;1.00;;;;;;5047029;28;20563;-72
2023/10/01 08:09:22;;;;;;;10.75;8.32;;;20.30;1.00;;;;;;5044755;28;20039;-72
2023/10/01 08:12:06;;;;;;;8.95;8.10;;;20.40;99.90;;;;;;5047630;28;20104;-72
2023/10/01 08:14:33;;;;;;;8.93;8.02;;;20.40;99.90;;;;;;5045468;28;20109;-72
2023/10/01 08:17:03;;;;;;;12.60;8.52;;;20.50;99.90;;;;;;5039809;28;20057;-72
2023/10/01 08:19:43;;;;;;;17.00;8.65;;;20.50;99.90;;;;;;5043430;28;20033;-72
2023/10/01 08:22:13;;;;;;;11.55;7.82;;;20.50;99.90;;;;;;5055318;28;20107;-72
2023/10/01 08:24:45;;;;;;;9.60;8.40;;;20.60;99.90;;;;;;5026231;28;20096;-72
2023/10/01 08:27:12;;;;;;;11.00;8.35;;;20.60;99.90;;;;;;5059738;28;20700;-72
2023/10/01 08:32:22;;;;;;;13.32;8.90;;;20.70;99.90;;;;;;5055832;28;20104;-72
2023/10/01 08:35:01;;;;;;;12.10;8.43;;;20.80;99.90;;;;;;5048824;28;20267;-72
2023/10/01 08:37:31;;;;;;;9.25;8.23;;;20.90;99.90;;;;;;5042407;28;20017;-72
2023/10/01 08:40:00;;;;;;;11.80;8.85;;;21.10;99.90;;;;;;5046552;28;20027;-72
2023/10/01 08:42:29;;;;;;;11.95;8.30;;;21.10;99.90;;;;;;5046361;28;20017;-72
2023/10/01 08:45:03;;;;;;;13.15;8.10;;;21.10;99.90;;;;;;5043260;28;20642;-72
2023/10/01 08:47:37;;;;;;;10.57;8.05;;;21.20;99.90;;;;;;5051001;28;20299;-72
2023/10/01 08:50:19;;;;;;;16.40;8.73;;;21.20;99.90;;;;;;5048333;28;20078;-72
2023/10/01 08:52:57;;;;;;;13.30;8.38;;;21.20;99.90;;;;;;5053320;28;20065;-72
2023/10/01 08:56:04;;;;;;;11.05;8.73;;;21.20;99.90;;;;;;5030719;28;20411;-72
2023/10/01 08:58:27;;;;;;;10.55;8.57;;;21.20;99.90;;;;;;5047643;28;20033;-72
2023/10/01 09:01:12;;;;;;;9.30;8.27;;;21.20;99.90;;;;;;5048086;28;20087;-72
2023/10/01 09:03:39;;;;;;;12.48;8.20;;;21.30;99.90;;;;;;5032971;28;20034;-72
2023/10/01 09:06:24;;;;;;;14.73;8.55;;;21.30;99.90;;;;;;5052190;28;20025;-72
2023/10/01 09:08:54;;;;;;;13.70;7.85;;;21.30;99.90;;;;;;5048357;28;20177;-72
2023/10/01 09:11:42;;;;;;;10.10;7.90;;;21.30;99.90;;;;;;5042297;28;20021;-72
2023/10/01 09:14:17;;;;;;;15.32;7.18;;;21.30;99.90;;;;;;5024056;28;20392;-72
2023/10/01 09:16:57;;;;;;;11.75;7.65;;;21.50;99.90;;;;;;5041635;28;20029;-72
2023/10/01 09:19:42;;;;;;;15.13;7.95;;;21.50;99.90;;;;;;5041467;28;20100;-72
2023/10/01 09:22:16;;;;;;;10.57;7.63;;;21.60;99.90;;;;;;5047805;28;20027;-72
2023/10/01 09:24:55;;;;;;;9.88;7.28;;;21.80;99.90;;;;;;5034909;28;20029;-72
2023/10/01 09:27:30;;;;;;;8.23;7.43;;;21.80;99.90;;;;;;5056028;28;20059;-72
2023/10/01 09:32:52;;;;;;;9.77;7.78;;;21.80;83.20;;;;;;5054430;28;20044;-72
2023/10/01 09:35:31;;;;;;;11.00;8.48;;;21.90;66.30;;;;;;5048006;28;20383;-72
2023/10/01 09:38:27;;;;;;;13.10;7.55;;;21.90;1.00;;;;;;5046517;28;20076;-72
2023/10/01 09:40:55;;;;;;;13.88;7.80;;;22.00;1.00;;;;;;5029249;28;20049;-72
2023/10/01 09:43:27;;;;;;;12.93;7.82;;;22.10;1.00;;;;;;5040907;28;20029;-73
2023/10/01 09:45:54;;;;;;;;;;;22.20;1.00;;;;;;5046980;28;20025;-73
2023/10/01 09:49:09;;;;;;;9.57;8.23;;;22.20;1.00;;;;;;5032884;28;19913;-72
2023/10/01 09:51:20;;;;;;;10.95;7.60;;;22.30;99.90;;;;;;5034310;28;20040;-72
2023/10/01 09:53:50;;;;;;;11.25;8.18;;;22.30;1.00;;;;;;5025769;28;20056;-72
2023/10/01 09:56:29;;;;;;;11.68;7.55;;;22.20;1.00;;;;;;5049768;28;20515;-72
2023/10/01 09:59:07;;;;;;;12.75;7.40;;;22.40;1.00;;;;;;5046338;28;20112;-72
2023/10/01 10:01:38;;;;;;;10.35;7.68;;;22.30;1.00;;;;;;5044935;28;20033;-72
2023/10/01 10:04:10;;;;;;;8.48;7.57;;;22.40;1.00;;;;;;5044861;28;20145;-72
2023/10/01 10:06:41;;;;;;;11.85;7.93;;;22.30;1.00;;;;;;5028353;28;20108;-72
2023/10/01 10:09:26;;;;;;;12.15;8.57;;;22.40;1.00;;;;;;5043766;28;20032;-72
2023/10/01 10:11:52;;;;;;;12.65;7.88;;;22.50;99.90;;;;;;5044272;28;20523;-72
2023/10/01 10:14:27;;;;;;;10.02;7.72;;;22.40;99.90;;;;;;5046280;28;20025;-73
2023/10/01 10:16:57;;;;;;;9.50;7.60;;;22.60;1.00;;;;;;5054709;28;20037;-73
2023/10/01 10:19:24;;;;;;;12.80;8.68;;;22.80;1.00;;;;;;5025092;28;20488;-72
2023/10/01 10:24:34;;;;;;;11.60;8.57;;;22.90;99.90;;;;;;5041739;28;20493;-72
2023/10/01 10:27:08;;;;;;;12.02;8.55;;;22.80;99.90;;;;;;5031280;28;20087;-72
2023/10/01 10:29:46;;;;;;;9.68;8.00;;;22.80;99.90;;;;;;5040803;28;20053;-72
2023/10/01 10:32:24;;;;;;;10.70;7.70;;;22.80;99.90;;;;;;5057493;28;20029;-72
2023/10/01 10:35:05;;;;;;;11.05;7.25;;;22.80;99.90;;;;;;5030331;28;20393;-73
2023/10/01 10:37:36;;;;;;;10.90;7.80;;;22.90;99.90;;;;;;5048172;28;20120;-73
2023/10/01 10:40:04;;;;;;;11.80;7.57;;;22.90;99.90;;;;;;5026856;28;20021;-72
2023/10/01 10:42:34;;;;;;;8.85;7.95;;;22.90;99.90;;;;;;5050697;28;20027;-72
2023/10/01 10:45:19;;;;;;;13.75;8.95;;;23.00;99.90;;;;;;5045451;28;20021;-72
2023/10/01 10:48:04;;;;;;;9.95;7.75;;;23.20;99.90;;;;;;5034881;28;20652;-72
2023/10/01 10:50:48;;;;;;;13.23;7.45;;;23.30;99.90;;;;;;5021347;28;20112;-72
2023/10/01 10:53:19;;;;;;;8.63;7.72;;;23.30;99.90;;;;;;5048905;28;20045;-72
2023/10/01 10:55:53;;;;;;;8.70;7.80;;;23.20;99.90;;;;;;5045585;28;20032;-72
2023/10/01 10:58:20;;;;;;;11.57;7.57;;;23.30;99.90;;;;;;5040954;28;20495;-72
2023/10/01 11:00:47;;;;;;;13.07;7.55;;;23.30;99.90;;;;;;5045694;28;20029;-72
2023/10/01 11:03:13;;;;;;;12.60;8.30;;;23.30;99.90;;;;;;5049558;28;20029;-72
2023/10/01 11:05:49;;;;;;;10.80;7.93;;;23.30;99.90;;;;;;5043644;28;20488;-73
2023/10/01 11:08:27;;;;;;;11.50;7.60;;;23.30;99.90;;;;;;5043981;28;20047;-73
2023/10/01 11:10:55;;;;;;;10.57;7.63;;;23.40;99.90;;;;;;5046907;28;20022;-73
2023/10/01 11:13:37;;;;;;;10.60;7.93;;;23.30;99.90;;;;;;5042388;28;20021;-73
2023/10/01 11:16:14;;;;;;;;;;;23.40;99.90;;;;;;5045934;28;20029;-74
2023/10/01 11:18:50;;;;;;;12.88;8.55;;;23.40;99.90;;;;;;5048937;28;20351;-73
2023/10/01 11:21:24;;;;;;;13.38;8.07;;;23.50;99.90;;;;;;5043270;28;20114;-73
2023/10/01 11:23:53;;;;;;;15.63;8.75;;;23.60;99.90;;;;;;5046552;28;20121;-73
2023/10/01 11:26:26;;;;;;;11.32;8.45;;;23.70;99.90;;;;;;5033688;28;20028;-74
2023/10/01 11:29:01;;;;;;;11.20;8.18;;;23.70;99.90;;;;;;5027347;28;20029;-73
2023/10/01 11:31:31;;;;;;;12.15;8.10;;;23.70;99.90;;;;;;5050890;28;20024;-74
2023/10/01 11:34:05;;;;;;;10.70;8.68;;;23.80;99.90;;;;;;5031517;28;20053;-73
2023/10/01 11:36:38;;;;;;;13.48;9.05;;;23.80;99.90;;;;;;5047423;28;20029;-73
2023/10/01 11:39:04;;;;;;;11.52;8.50;;;23.90;99.90;;;;;;5042407;28;20116;-73
2023/10/01 11:41:41;;;;;;;15.05;9.48;;;23.80;99.90;;;;;;5030986;28;20036;-74
2023/10/01 11:44:09;;;;;;;17.02;10.23;;;24.00;99.90;;;;;;5048344;28;20024;-73
2023/10/01 11:49:34;;;;;;;12.65;8.32;;;24.00;99.90;;;;;;5043078;28;20044;-73
2023/10/01 11:52:21;;;;;;;10.85;8.18;;;24.00;99.90;;;;;;5053996;28;20044;-74
2023/10/01 11:54:53;;;;;;;9.48;7.90;;;24.00;99.90;;;;;;5046058;28;20544;-73
2023/10/01 11:57:22;;;;;;;;;;;24.00;99.90;;;;;;5051275;28;20112;-74
2023/10/01 11:59:55;;;;;;;13.98;9.07;;;24.10;99.90;;;;;;5032117;28;20391;-73
2023/10/01 12:02:33;;;;;;;15.38;8.25;;;24.10;99.90;;;;;;5050914;28;20112;-73
2023/10/01 12:05:06;;;;;;;15.27;8.60;;;24.10;99.90;;;;;;5044137;28;20147;-73
2023/10/01 12:07:45;;;;;;;13.98;9.20;;;24.20;99.90;;;;;;5048969;28;20082;-74
2023/10/01 12:12:59;;;;;;;11.73;8.43;;;24.10;78.60;;;;;;5052814;28;20389;-73
2023/10/01 12:15:34;;;;;;;9.63;8.18;;;24.10;99.90;;;;;;5043994;28;20084;-74
2023/10/01 12:18:18;;;;;;;14.45;8.48;;;24.30;99.90;;;;;;5056276;28;20026;-73
2023/10/01 12:20:51;;;;;;;14.90;8.75;;;24.30;99.90;;;;;;5032923;28;20436;-73
2023/10/01 12:23:19;;;;;;;10.95;8.70;;;24.40;99.90;;;;;;5042666;28;20040;-73
2023/10/01 12:28:18;;;;;;;8.82;7.80;;;24.40;99.90;;;;;;5045669;28;20033;-73
2023/10/01 12:31:01;;;;;;;11.60;8.10;;;24.40;99.90;;;;;;5045995;28;20017;-73
2023/10/01 12:36:31;;;;;;;13.52;9.25;;;24.60;99.90;;;;;;5044028;28;20488;-74
2023/10/01 12:41:56;;;;;;;8.73;7.88;;;24.60;52.30;;;;;;5055578;28;20033;-74
2023/10/01 12:44:28;;;;;;;12.65;7.70;;;24.60;62.10;;;;;;5039133;28;20029;-74
2023/10/01 12:46:55;;;;;;;14.18;8.10;;;24.70;60.20;;;;;;5052147;28;20063;-74
2023/10/01 12:49:21;;;;;;;11.48;8.13;;;24.80;72.40;;;;;;5044384;28;20453;-74
2023/10/01 12:51:53;;;;;;;9.75;7.93;;;24.80;49.00;;;;;;5027403;28;20025;-74
2023/10/01 12:54:19;;;;;;;;;;;24.80;27.70;;;;;;5038254;28;20041;-74
2023/10/01 12:57:02;;;;;;;13.00;8.50;;;24.80;57.90;;;;;;5030541;28;19910;-74
2023/10/01 13:00:21;;;;;;;8.20;7.13;;;24.80;25.20;;;;;;5030742;28;20032;-74
2023/10/01 13:02:42;;;;;;;12.05;8.63;;;24.80;24.10;;;;;;5028061;28;20860;-74
2023/10/01 13:05:21;;;;;;;8.65;7.43;;;24.80;46.30;;;;;;5033431;28;20388;-74
2023/10/01 13:07:56;;;;;;;9.13;7.47;;;24.70;44.70;;;;;;5040151;28;20033;-74
2023/10/01 13:10:35;;;;;;;14.15;8.65;;;24.70;41.40;;;;;;5032534;28;20028;-74
2023/10/01 13:13:05;;;;;;;15.75;9.15;;;24.70;53.80;;;;;;5033404;28;20083;-75
2023/10/01 13:15:33;;;;;;;11.10;8.43;;;24.60;53.20;;;;;;5029450;28;20013;-74
2023/10/01 13:18:09;;;;;;;12.38;8.75;;;24.50;89.00;;;;;;5030813;28;20377;-75
2023/10/01 13:20:46;;;;;;;12.95;8.25;;;24.50;86.30;;;;;;5032028;28;20021;-75
2023/10/01 13:23:12;;;;;;;10.30;8.70;;;24.40;57.80;;;;;;5034157;28;20025;-74
2023/10/01 13:25:46;;;;;;;18.20;8.55;;;24.40;9.00;;;;;;5035707;28;20048;-75
2023/10/01 13:28:19;;;;;;;15.32;8.98;;;24.40;39.80;;;;;;5030241;28;20548;-75
2023/10/01 13:33:43;;;;;;;16.02;9.27;;;24.40;73.80;;;;;;5030504;28;20116;-74
2023/10/01 13:36:13;;;;;;;41.15;17.85;;;24.40;99.90;;;;;;5033255;28;20029;-75
2023/10/01 13:38:56;;;;;;;27.15;12.40;;;24.40;99.90;;;;;;5038120;28;20079;-74